Time;durP1;ratioP1;P1;durP2;ratioP2;P2;SDS_P1;SDS_P2;PMS_P1;PMS_P2;Temp;Humidity;BMP_temperature;BMP_pressure;BME280_temperature;BME280_humidity;BME280_pressure;Samples;Min_cycle;Max_cycle;Signal;HPM_P1;HPM_P2
2023/03/09 00:01:50;;;;;;;20.58;12.45;;;2.60;99.90;;;;;;5009100;28;20412;-59
2023/03/09 00:04:17;;;;;;;24.98;13.52;;;2.70;99.90;;;;;;5023126;28;20260;-58
2023/03/09 00:06:44;;;;;;;22.75;13.25;;;2.60;99.90;;;;;;5020374;28;20088;-59
2023/03/09 00:09:11;;;;;;;22.25;13.32;;;2.60;99.90;;;;;;5023610;28;20432;-58
2023/03/09 00:11:40;;;;;;;24.67;13.00;;;2.60;99.90;;;;;;5010182;28;20930;-57
2023/03/09 00:14:06;;;;;;;23.80;12.60;;;2.60;99.90;;;;;;5003610;28;20638;-58
2023/03/09 00:16:32;;;;;;;19.50;11.52;;;2.50;99.90;;;;;;5005579;28;20052;-58
2023/03/09 00:18:58;;;;;;;24.48;13.32;;;2.60;99.90;;;;;;5027038;28;20041;-59
2023/03/09 00:21:34;;;;;;;23.40;13.23;;;2.60;99.90;;;;;;5002486;28;20136;-58
2023/03/09 00:24:24;;;;;;;19.40;10.48;;;2.60;99.90;;;;;;5011181;28;20045;-57
2023/03/09 00:26:56;;;;;;;19.55;10.85;;;2.60;99.90;;;;;;5018496;28;20484;-58
2023/03/09 00:29:23;;;;;;;18.17;10.65;;;2.60;99.90;;;;;;5024779;28;20038;-59
2023/03/09 00:31:48;;;;;;;18.85;10.75;;;2.60;99.90;;;;;;5024479;28;20048;-58
2023/03/09 00:34:16;;;;;;;22.80;11.77;;;2.50;99.90;;;;;;5010174;28;20049;-60
2023/03/09 00:36:42;;;;;;;20.58;10.77;;;2.50;99.90;;;;;;5028145;28;20084;-60
2023/03/09 00:39:09;;;;;;;21.17;10.85;;;2.50;99.90;;;;;;5007225;28;20052;-59
2023/03/09 00:41:35;;;;;;;21.70;10.60;;;2.50;99.90;;;;;;5004614;28;20107;-58
2023/03/09 00:44:02;;;;;;;19.70;10.70;;;2.50;99.90;;;;;;5014021;28;20125;-60
2023/03/09 00:46:29;;;;;;;18.85;11.23;;;2.50;99.90;;;;;;5021893;28;20397;-60
2023/03/09 00:48:55;;;;;;;20.25;10.88;;;2.40;99.90;;;;;;5012193;28;20041;-57
2023/03/09 00:51:21;;;;;;;19.88;10.73;;;2.40;99.90;;;;;;5018883;28;20041;-57
2023/03/09 00:53:46;;;;;;;20.05;11.45;;;2.40;99.90;;;;;;5026050;28;20515;-60
2023/03/09 00:56:19;;;;;;;21.10;12.02;;;2.30;99.90;;;;;;5010262;28;20051;-58
2023/03/09 00:58:44;;;;;;;18.70;11.20;;;2.30;99.90;;;;;;5028667;28;20490;-59
2023/03/09 01:01:13;;;;;;;24.65;13.13;;;2.30;99.90;;;;;;5015649;28;20069;-59
2023/03/09 01:03:39;;;;;;;19.65;11.45;;;2.30;99.90;;;;;;5025289;28;20076;-58
2023/03/09 01:06:06;;;;;;;20.10;11.82;;;2.20;99.90;;;;;;5018173;28;20042;-59
2023/03/09 01:08:33;;;;;;;21.75;11.90;;;2.20;99.90;;;;;;5021286;28;20037;-58
2023/03/09 01:10:59;;;;;;;18.00;10.18;;;2.20;99.90;;;;;;5028773;28;20458;-58
2023/03/09 01:13:25;;;;;;;19.60;11.02;;;2.10;99.90;;;;;;5016147;28;20649;-57
2023/03/09 01:15:51;;;;;;;22.27;11.52;;;2.10;99.90;;;;;;5023081;28;20128;-57
2023/03/09 01:18:17;;;;;;;17.98;10.27;;;2.10;99.90;;;;;;5015524;28;20125;-60
2023/03/09 01:20:43;;;;;;;20.63;11.30;;;2.00;99.90;;;;;;5025470;28;20045;-59
2023/03/09 01:23:08;;;;;;;18.00;10.77;;;2.00;99.90;;;;;;4998799;28;20042;-60
2023/03/09 01:25:34;;;;;;;19.60;11.43;;;2.00;99.90;;;;;;5021431;28;20040;-59
2023/03/09 01:28:00;;;;;;;17.77;10.30;;;2.00;99.90;;;;;;5033394;28;20047;-57
2023/03/09 01:30:26;;;;;;;21.13;11.43;;;2.00;99.90;;;;;;5026403;28;20083;-58
2023/03/09 01:32:53;;;;;;;23.73;12.50;;;2.00;99.90;;;;;;5023543;28;20488;-58
2023/03/09 01:35:19;;;;;;;20.30;11.30;;;1.90;99.90;;;;;;5003186;28;20044;-59
2023/03/09 01:37:44;;;;;;;17.88;10.65;;;2.00;99.90;;;;;;5026015;28;20045;-57
2023/03/09 01:40:16;;;;;;;19.23;10.48;;;1.90;99.90;;;;;;5020412;28;20099;-60
2023/03/09 01:42:42;;;;;;;21.85;11.77;;;1.90;99.90;;;;;;5006310;28;20052;-58
2023/03/09 01:45:11;;;;;;;16.52;9.95;;;1.80;99.90;;;;;;5028676;28;20033;-60
2023/03/09 01:47:36;;;;;;;20.50;11.02;;;1.90;99.90;;;;;;5035129;28;20041;-58
2023/03/09 01:50:04;;;;;;;20.25;11.45;;;1.80;99.90;;;;;;5030834;28;20052;-57
2023/03/09 01:52:33;;;;;;;19.95;10.80;;;1.80;99.90;;;;;;5022724;28;20131;-58
2023/03/09 01:55:41;;;;;;;21.65;12.13;;;1.80;99.90;;;;;;5017281;28;20107;-57
2023/03/09 01:58:17;;;;;;;21.98;10.18;;;1.80;99.90;;;;;;4942382;28;20165;-54
2023/03/09 02:00:47;;;;;;;20.25;10.18;;;1.80;99.90;;;;;;4951939;28;20050;-58
2023/03/09 02:03:18;;;;;;;19.33;10.95;;;1.80;99.90;;;;;;4993222;28;20068;-59
2023/03/09 02:05:52;;;;;;;19.75;11.77;;;1.70;99.90;;;;;;5026238;28;20052;-60
2023/03/09 02:08:18;;;;;;;;;;;1.70;99.90;;;;;;5025989;28;20408;-58
2023/03/09 02:10:57;;;;;;;20.00;11.68;;;1.70;99.90;;;;;;5019747;28;19931;-60
2023/03/09 02:13:33;;;;;;;20.50;12.07;;;1.70;99.90;;;;;;5011928;28;20428;-59
2023/03/09 02:15:59;;;;;;;22.83;12.45;;;1.70;99.90;;;;;;5011194;28;20561;-60
2023/03/09 02:18:25;;;;;;;20.65;11.88;;;1.70;99.90;;;;;;5023988;28;20044;-60
2023/03/09 02:21:36;;;;;;;18.40;11.07;;;1.70;99.90;;;;;;5014111;28;20046;-59
2023/03/09 02:24:26;;;;;;;22.10;11.95;;;1.70;99.90;;;;;;4984048;28;20060;-60
2023/03/09 02:27:01;;;;;;;19.65;11.73;;;1.70;99.90;;;;;;5008725;28;20037;-59
2023/03/09 02:29:28;;;;;;;18.52;12.15;;;1.70;99.90;;;;;;5026526;28;20038;-59
2023/03/09 02:31:54;;;;;;;23.52;12.70;;;1.80;99.90;;;;;;5010644;28;20244;-60
2023/03/09 02:34:20;;;;;;;21.63;12.20;;;1.80;99.90;;;;;;5001758;28;20076;-60
2023/03/09 02:36:46;;;;;;;21.02;12.50;;;1.80;99.90;;;;;;5029598;28;20041;-60
2023/03/09 02:39:28;;;;;;;23.38;13.23;;;1.80;99.90;;;;;;5009531;28;20469;-58
2023/03/09 02:41:57;;;;;;;21.13;12.20;;;1.80;99.90;;;;;;5032326;28;20670;-59
2023/03/09 02:44:25;;;;;;;20.85;11.90;;;1.80;99.90;;;;;;5027660;28;20038;-57
2023/03/09 02:46:50;;;;;;;22.13;12.63;;;1.80;99.90;;;;;;5024924;28;20071;-59
2023/03/09 02:49:17;;;;;;;20.55;12.30;;;1.80;99.90;;;;;;5010240;28;20116;-58
2023/03/09 02:51:43;;;;;;;22.55;13.43;;;1.70;99.90;;;;;;5028243;28;20041;-56
2023/03/09 02:54:08;;;;;;;22.77;12.50;;;1.70;99.90;;;;;;4996702;28;20099;-58
2023/03/09 02:56:34;;;;;;;25.00;14.02;;;1.70;99.90;;;;;;5021593;28;20045;-58
2023/03/09 02:59:02;;;;;;;21.65;12.77;;;1.70;99.90;;;;;;5043187;28;20045;-57
2023/03/09 03:01:28;;;;;;;26.27;14.05;;;1.70;99.90;;;;;;5026916;28;20045;-56
2023/03/09 03:03:54;;;;;;;28.30;14.57;;;1.70;99.90;;;;;;4998955;28;20085;-58
2023/03/09 03:06:20;;;;;;;24.00;13.35;;;1.80;99.90;;;;;;5018265;28;20030;-58
2023/03/09 03:08:46;;;;;;;23.20;13.85;;;1.80;99.90;;;;;;5029081;28;20487;-59
2023/03/09 03:11:12;;;;;;;21.20;13.15;;;1.70;99.90;;;;;;5020165;28;20111;-59
2023/03/09 03:13:38;;;;;;;22.85;13.30;;;1.70;99.90;;;;;;5015281;28;20033;-59
2023/03/09 03:16:04;;;;;;;26.73;14.15;;;1.70;99.90;;;;;;5030817;28;20053;-60
2023/03/09 03:18:30;;;;;;;23.65;13.30;;;1.80;99.90;;;;;;5022180;28;20114;-58
2023/03/09 03:20:56;;;;;;;26.33;13.98;;;1.70;99.90;;;;;;5025940;28;20405;-58
2023/03/09 03:23:23;;;;;;;25.15;14.45;;;1.80;99.90;;;;;;5027251;28;20259;-60
2023/03/09 03:25:49;;;;;;;24.55;13.43;;;1.80;99.90;;;;;;5030341;28;20044;-60
2023/03/09 03:28:15;;;;;;;23.92;14.25;;;1.80;99.90;;;;;;5022445;28;20029;-59
2023/03/09 03:30:40;;;;;;;25.77;13.85;;;1.80;99.90;;;;;;5030109;28;20088;-60
2023/03/09 03:33:06;;;;;;;25.08;14.35;;;1.80;99.90;;;;;;4991884;28;20077;-57
2023/03/09 03:35:32;;;;;;;23.75;13.95;;;1.80;99.90;;;;;;5024592;28;20044;-58
2023/03/09 03:37:58;;;;;;;25.83;14.90;;;1.80;99.90;;;;;;5004523;28;20500;-60
2023/03/09 03:40:24;;;;;;;25.60;14.32;;;1.80;99.90;;;;;;5023556;28;20060;-60
2023/03/09 03:42:49;;;;;;;25.13;14.68;;;1.80;99.90;;;;;;5026138;28;20068;-60
2023/03/09 03:45:15;;;;;;;27.88;13.90;;;1.80;99.90;;;;;;5025001;28;20045;-60
2023/03/09 03:47:41;;;;;;;26.00;14.75;;;1.80;99.90;;;;;;5021651;28;20056;-59
2023/03/09 03:50:07;;;;;;;24.52;14.32;;;1.80;99.90;;;;;;5030721;28;20552;-58
2023/03/09 03:52:33;;;;;;;28.08;14.35;;;1.80;99.90;;;;;;5026241;28;20037;-58
2023/03/09 03:54:58;;;;;;;26.40;14.73;;;1.80;99.90;;;;;;5022535;28;20500;-58
2023/03/09 03:57:24;;;;;;;26.23;14.27;;;1.80;99.90;;;;;;5025632;28;20064;-59
2023/03/09 03:59:50;;;;;;;25.65;14.73;;;1.80;99.90;;;;;;5026035;28;20246;-59
2023/03/09 04:02:16;;;;;;;24.83;14.63;;;1.80;99.90;;;;;;5035949;28;20049;-59
2023/03/09 04:04:42;;;;;;;29.40;15.55;;;1.80;99.90;;;;;;5014735;28;20046;-60
2023/03/09 04:07:08;;;;;;;25.27;14.90;;;1.80;99.90;;;;;;5004803;28;20341;-59
2023/03/09 04:09:33;;;;;;;30.23;15.25;;;1.70;99.90;;;;;;5024923;28;20037;-58
2023/03/09 04:11:59;;;;;;;29.73;15.70;;;1.70;99.90;;;;;;5008582;28;20121;-60
2023/03/09 04:14:25;;;;;;;29.13;15.73;;;1.70;99.90;;;;;;5018826;28;20037;-58
2023/03/09 04:16:51;;;;;;;28.92;15.52;;;1.70;99.90;;;;;;5022594;28;20052;-58
2023/03/09 04:19:16;;;;;;;31.65;17.42;;;1.70;99.90;;;;;;5029063;28;20123;-60
2023/03/09 04:21:42;;;;;;;30.63;17.23;;;1.70;99.90;;;;;;5008183;28;20175;-60
2023/03/09 04:24:08;;;;;;;27.10;15.65;;;1.70;99.90;;;;;;5011004;28;20505;-60
2023/03/09 04:26:33;;;;;;;32.30;17.58;;;1.70;99.90;;;;;;5023325;28;20096;-57
2023/03/09 04:28:59;;;;;;;29.33;16.35;;;1.70;99.90;;;;;;5026592;28;20042;-60
2023/03/09 04:31:25;;;;;;;30.45;17.35;;;1.60;99.90;;;;;;5028720;28;20037;-58
2023/03/09 04:33:51;;;;;;;29.00;15.25;;;1.70;99.90;;;;;;4993263;28;20507;-59
2023/03/09 04:36:16;;;;;;;32.25;18.50;;;1.60;99.90;;;;;;5006561;28;20136;-60
2023/03/09 04:38:42;;;;;;;32.92;17.35;;;1.60;99.90;;;;;;4988348;28;20244;-57
2023/03/09 04:41:11;;;;;;;31.67;16.25;;;1.60;99.90;;;;;;5023598;28;20420;-57
2023/03/09 04:43:37;;;;;;;31.20;16.80;;;1.60;99.90;;;;;;5026274;28;20057;-59
2023/03/09 04:46:03;;;;;;;32.40;17.75;;;1.60;99.90;;;;;;5028473;28;20037;-59
2023/03/09 04:48:29;;;;;;;28.38;16.15;;;1.60;99.90;;;;;;5005599;28;20484;-63
2023/03/09 04:50:54;;;;;;;29.95;16.70;;;1.70;99.90;;;;;;5031255;28;20045;-59
2023/03/09 04:53:20;;;;;;;29.42;16.95;;;1.60;99.90;;;;;;5010013;28;20599;-57
2023/03/09 04:55:46;;;;;;;32.95;17.73;;;1.60;99.90;;;;;;4988236;28;20046;-59
2023/03/09 04:58:12;;;;;;;29.30;16.75;;;1.70;99.90;;;;;;5001099;28;20045;-60
2023/03/09 05:00:37;;;;;;;30.50;17.45;;;1.60;99.90;;;;;;5019028;28;20441;-59
2023/03/09 05:03:03;;;;;;;29.77;17.20;;;1.60;99.90;;;;;;5022301;28;20046;-56
2023/03/09 05:05:29;;;;;;;30.13;17.00;;;1.60;99.90;;;;;;5018687;28;20358;-60
2023/03/09 05:07:54;;;;;;;31.05;16.45;;;1.60;99.90;;;;;;4989252;28;20046;-59
2023/03/09 05:10:20;;;;;;;29.88;15.93;;;1.60;99.90;;;;;;5020279;28;20033;-63
2023/03/09 05:12:46;;;;;;;33.38;17.52;;;1.70;99.90;;;;;;5026540;28;20105;-55
2023/03/09 05:15:12;;;;;;;31.30;17.60;;;1.60;99.90;;;;;;5001041;28;20488;-59
2023/03/09 05:17:37;;;;;;;29.65;16.55;;;1.60;99.90;;;;;;5014777;28;20048;-58
2023/03/09 05:20:09;;;;;;;35.20;18.10;;;1.60;99.90;;;;;;5042989;22;20047;-61
2023/03/09 05:22:35;;;;;;;30.67;17.13;;;1.60;99.90;;;;;;5089593;28;20081;-61
2023/03/09 05:25:00;;;;;;;35.40;18.35;;;1.60;99.90;;;;;;5089515;28;20052;-61
2023/03/09 05:27:26;;;;;;;32.92;17.63;;;1.60;99.90;;;;;;5089599;28;20046;-60
2023/03/09 05:29:52;;;;;;;35.03;17.83;;;1.60;99.90;;;;;;5089586;28;20124;-61
2023/03/09 05:32:18;;;;;;;34.05;18.55;;;1.60;99.90;;;;;;5089231;28;20047;-59
2023/03/09 05:34:46;;;;;;;35.13;19.00;;;1.60;99.90;;;;;;5091274;28;20414;-61
2023/03/09 05:37:11;;;;;;;38.13;20.17;;;1.60;99.90;;;;;;5090713;28;20067;-61
2023/03/09 05:39:37;;;;;;;33.75;18.52;;;1.60;99.90;;;;;;5090993;28;20517;-61
2023/03/09 05:42:03;;;;;;;33.63;18.90;;;1.60;99.90;;;;;;5089435;28;20097;-60
2023/03/09 05:44:28;;;;;;;36.95;19.40;;;1.60;99.90;;;;;;5089260;28;20051;-60
2023/03/09 05:46:54;;;;;;;37.92;18.63;;;1.60;99.90;;;;;;5089343;28;20032;-59
2023/03/09 05:49:20;;;;;;;36.05;18.58;;;1.60;99.90;;;;;;5089474;28;20076;-61
2023/03/09 05:51:46;;;;;;;36.25;19.23;;;1.70;99.90;;;;;;5090354;28;20083;-61
2023/03/09 05:54:12;;;;;;;34.13;17.60;;;1.60;99.90;;;;;;5089384;28;20047;-61
2023/03/09 05:56:37;;;;;;;36.92;19.83;;;1.60;99.90;;;;;;5090202;28;20118;-60
2023/03/09 05:59:03;;;;;;;32.22;18.35;;;1.60;99.90;;;;;;5072419;28;20088;-60
2023/03/09 06:01:30;;;;;;;35.38;19.40;;;1.70;99.90;;;;;;5072409;28;20063;-61
2023/03/09 06:03:56;;;;;;;34.63;18.52;;;1.60;99.90;;;;;;5088944;28;20040;-60
2023/03/09 06:06:22;;;;;;;29.58;17.85;;;1.60;99.90;;;;;;5072468;28;20379;-58
2023/03/09 06:08:48;;;;;;;33.05;18.67;;;1.60;99.90;;;;;;5088389;28;20072;-60
2023/03/09 06:11:14;;;;;;;29.98;17.23;;;1.60;99.90;;;;;;5089089;28;20498;-59
2023/03/09 06:13:40;;;;;;;30.63;17.38;;;1.60;99.90;;;;;;5072463;28;20402;-61
2023/03/09 06:16:08;;;;;;;27.35;15.95;;;1.70;99.90;;;;;;5084472;28;20048;-61
2023/03/09 06:18:34;;;;;;;31.58;17.98;;;1.60;99.90;;;;;;5070405;28;20040;-61
2023/03/09 06:21:03;;;;;;;32.90;17.60;;;1.60;99.90;;;;;;5069093;28;20048;-61
2023/03/09 06:23:30;;;;;;;32.38;17.92;;;1.70;99.90;;;;;;5069360;28;20045;-61
2023/03/09 06:25:56;;;;;;;33.67;18.98;;;1.60;99.90;;;;;;5068793;28;20124;-61
2023/03/09 06:28:22;;;;;;;32.10;18.77;;;1.70;99.90;;;;;;5071828;28;20033;-61
2023/03/09 06:30:48;;;;;;;33.42;17.98;;;1.70;99.90;;;;;;5054936;28;20044;-61
2023/03/09 06:33:14;;;;;;;34.70;18.77;;;1.70;99.90;;;;;;5087270;28;20047;-61
2023/03/09 06:35:40;;;;;;;29.25;16.23;;;1.70;99.90;;;;;;5075050;28;20084;-61
2023/03/09 06:38:06;;;;;;;28.85;17.10;;;1.70;99.90;;;;;;5073663;28;20094;-61
2023/03/09 06:40:32;;;;;;;27.63;15.48;;;1.60;99.90;;;;;;5072617;28;20044;-61
2023/03/09 06:42:57;;;;;;;30.90;16.63;;;1.70;99.90;;;;;;5073726;28;20072;-60
2023/03/09 06:45:24;;;;;;;30.00;17.48;;;1.60;99.90;;;;;;5073783;28;20033;-61
2023/03/09 06:47:54;;;;;;;30.77;17.38;;;1.60;99.90;;;;;;5073129;28;20048;-59
2023/03/09 06:50:20;;;;;;;32.03;17.40;;;1.60;99.90;;;;;;5055862;28;20049;-61
2023/03/09 06:52:45;;;;;;;30.83;17.65;;;1.60;99.90;;;;;;5055329;28;20051;-61
2023/03/09 06:55:11;;;;;;;29.52;17.02;;;1.60;99.90;;;;;;5092988;28;20161;-61
2023/03/09 06:57:37;;;;;;;28.17;16.30;;;1.70;99.90;;;;;;5091790;28;20169;-60
2023/03/09 07:00:04;;;;;;;33.42;17.95;;;1.60;99.90;;;;;;5075601;28;20058;-61
2023/03/09 07:02:31;;;;;;;31.42;17.00;;;1.70;99.90;;;;;;5091415;28;20052;-61
2023/03/09 07:04:57;;;;;;;35.03;18.35;;;1.70;99.90;;;;;;5074649;28;20256;-61
2023/03/09 07:07:22;;;;;;;31.33;17.17;;;1.70;99.90;;;;;;5091960;28;20202;-61
2023/03/09 07:09:48;;;;;;;26.65;15.57;;;1.70;99.90;;;;;;5092075;28;20040;-61
2023/03/09 07:12:14;;;;;;;26.40;15.02;;;1.70;99.90;;;;;;5091915;28;20044;-61
2023/03/09 07:14:40;;;;;;;29.20;16.45;;;1.70;99.90;;;;;;5075225;28;20043;-61
2023/03/09 07:17:06;;;;;;;28.92;16.95;;;1.80;99.90;;;;;;5075156;28;20495;-60
2023/03/09 07:19:31;;;;;;;25.95;14.65;;;1.80;99.90;;;;;;5088847;28;20043;-60
2023/03/09 07:21:57;;;;;;;24.95;14.75;;;1.90;99.90;;;;;;5112663;28;20332;-61
2023/03/09 07:24:23;;;;;;;27.30;16.02;;;2.00;99.90;;;;;;5113662;28;20040;-60
2023/03/09 07:26:49;;;;;;;29.90;17.17;;;2.10;99.90;;;;;;5094886;28;20035;-61
2023/03/09 07:29:15;;;;;;;28.73;16.48;;;2.20;99.90;;;;;;5113611;28;20434;-61
2023/03/09 07:31:41;;;;;;;27.85;16.75;;;2.20;99.90;;;;;;5094500;28;20031;-60
2023/03/09 07:34:06;;;;;;;29.25;15.88;;;2.30;99.90;;;;;;5113476;28;20134;-61
2023/03/09 07:36:32;;;;;;;29.92;16.08;;;2.40;99.90;;;;;;5095257;28;20458;-58
2023/03/09 07:38:58;;;;;;;29.77;16.92;;;2.40;99.90;;;;;;5113228;28;20046;-61
2023/03/09 07:41:24;;;;;;;25.50;15.25;;;2.60;99.90;;;;;;5094475;28;20514;-61
2023/03/09 07:43:49;;;;;;;26.85;17.08;;;2.60;99.90;;;;;;5112548;28;20054;-60
2023/03/09 07:46:17;;;;;;;28.10;14.98;;;2.60;99.90;;;;;;5094733;28;20054;-61
2023/03/09 07:48:43;;;;;;;31.15;14.43;;;2.60;99.90;;;;;;5094410;28;20043;-61
2023/03/09 07:51:13;;;;;;;27.85;16.88;;;2.60;99.90;;;;;;5077005;28;20526;-59
2023/03/09 07:53:39;;;;;;;22.65;14.02;;;2.60;99.90;;;;;;5111949;28;20047;-61
2023/03/09 07:56:07;;;;;;;26.42;15.35;;;2.60;99.90;;;;;;5094651;28;20181;-61
2023/03/09 07:58:36;;;;;;;25.10;14.25;;;2.60;99.90;;;;;;5112778;28;20047;-61
2023/03/09 08:01:06;;;;;;;21.40;13.75;;;2.70;99.90;;;;;;5077253;28;20043;-61
2023/03/09 08:03:32;;;;;;;24.63;14.73;;;2.70;99.90;;;;;;5094032;28;20532;-59
2023/03/09 08:06:01;;;;;;;23.88;14.20;;;2.80;99.90;;;;;;5094173;28;20044;-58
2023/03/09 08:08:27;;;;;;;26.02;16.05;;;2.80;99.90;;;;;;5112684;28;20481;-60
2023/03/09 08:10:53;;;;;;;27.35;15.50;;;2.90;99.90;;;;;;5094424;28;20047;-61
2023/03/09 08:13:21;;;;;;;25.25;17.10;;;3.00;99.90;;;;;;5094098;28;20047;-61
2023/03/09 08:15:51;;;;;;;30.40;16.05;;;3.00;99.90;;;;;;5094254;28;20047;-59
2023/03/09 08:18:18;;;;;;;28.33;17.23;;;2.90;99.90;;;;;;5076863;28;20043;-59
2023/03/09 08:20:44;;;;;;;25.17;16.23;;;3.00;99.90;;;;;;5107249;28;20491;-60
2023/03/09 08:23:10;;;;;;;23.98;15.15;;;3.10;99.90;;;;;;5091635;28;20105;-61
2023/03/09 08:25:36;;;;;;;24.55;15.40;;;3.20;99.90;;;;;;5088481;28;20069;-61
2023/03/09 08:28:03;;;;;;;22.65;14.52;;;3.30;99.90;;;;;;5093681;28;20118;-61
2023/03/09 08:30:29;;;;;;;21.05;13.05;;;3.40;99.90;;;;;;5112317;28;20057;-61
2023/03/09 08:32:56;;;;;;;22.50;14.00;;;3.40;99.90;;;;;;5111856;28;20490;-61
2023/03/09 08:35:25;;;;;;;18.02;12.02;;;3.40;99.90;;;;;;5110988;28;20035;-61
2023/03/09 08:37:51;;;;;;;24.65;16.50;;;3.50;99.90;;;;;;5083408;28;20055;-60
2023/03/09 08:40:17;;;;;;;23.33;13.65;;;3.50;99.90;;;;;;5077896;28;20048;-61
2023/03/09 08:42:43;;;;;;;21.15;14.57;;;3.60;99.90;;;;;;5093722;28;20044;-61
2023/03/09 08:45:10;;;;;;;20.77;13.10;;;3.60;99.90;;;;;;5110554;28;20039;-61
2023/03/09 08:47:36;;;;;;;17.55;11.68;;;3.70;99.90;;;;;;5111851;28;20035;-61
2023/03/09 08:50:03;;;;;;;19.52;12.73;;;3.80;99.90;;;;;;5076698;28;20088;-59
2023/03/09 08:52:34;;;;;;;18.00;12.30;;;3.90;99.90;;;;;;5111944;28;20071;-61
2023/03/09 08:55:01;;;;;;;19.02;12.13;;;4.00;99.90;;;;;;5093215;28;20134;-61
2023/03/09 08:57:27;;;;;;;17.42;10.95;;;4.10;99.90;;;;;;5111286;28;20459;-60
2023/03/09 08:59:53;;;;;;;18.00;11.77;;;4.20;99.90;;;;;;5093474;28;20052;-58
2023/03/09 09:02:19;;;;;;;15.65;10.50;;;4.20;99.90;;;;;;5093346;28;20097;-61
2023/03/09 09:04:45;;;;;;;16.77;11.23;;;4.30;99.90;;;;;;5093122;28;20049;-61
2023/03/09 09:07:12;;;;;;;17.42;10.50;;;4.30;99.90;;;;;;5111960;28;20114;-61
2023/03/09 09:09:38;;;;;;;16.65;10.55;;;4.20;99.90;;;;;;5111731;28;20093;-60
2023/03/09 09:12:05;;;;;;;15.75;10.43;;;4.30;99.90;;;;;;5093634;28;20039;-61
2023/03/09 09:14:32;;;;;;;16.70;10.10;;;4.40;99.90;;;;;;5111373;28;20058;-61
2023/03/09 09:16:58;;;;;;;16.00;10.52;;;4.40;99.90;;;;;;5092710;28;20493;-58
2023/03/09 09:19:24;;;;;;;15.70;10.15;;;4.30;99.90;;;;;;5091896;28;20047;-58
2023/03/09 09:21:52;;;;;;;15.95;9.90;;;4.40;99.90;;;;;;5109846;28;20055;-60
2023/03/09 09:24:18;;;;;;;16.33;10.27;;;4.40;99.90;;;;;;5092142;28;20052;-61
2023/03/09 09:26:44;;;;;;;12.98;9.65;;;4.50;99.90;;;;;;5110402;28;20074;-60
2023/03/09 09:29:11;;;;;;;13.93;9.07;;;4.60;99.90;;;;;;5110327;28;20035;-61
2023/03/09 09:31:43;;;;;;;15.65;10.80;;;4.60;99.90;;;;;;5094681;28;20399;-60
2023/03/09 09:34:11;;;;;;;14.00;8.57;;;4.60;99.90;;;;;;5056533;28;20036;-60
2023/03/09 09:36:39;;;;;;;14.32;9.57;;;4.50;99.90;;;;;;5089818;28;20042;-57
2023/03/09 09:39:05;;;;;;;12.38;9.05;;;4.50;99.90;;;;;;5071474;28;20052;-59
2023/03/09 09:41:52;;;;;;;11.52;8.32;;;4.60;99.90;;;;;;5096428;28;20108;-61
2023/03/09 09:44:29;;;;;;;10.02;7.45;;;4.70;99.90;;;;;;5109825;28;20050;-60
2023/03/09 09:46:58;;;;;;;11.32;7.78;;;4.70;99.90;;;;;;5105501;28;20040;-58
2023/03/09 09:49:26;;;;;;;11.45;7.55;;;4.70;99.90;;;;;;5099683;28;20040;-58
2023/03/09 09:52:04;;;;;;;10.90;7.78;;;4.80;99.90;;;;;;5100833;28;20043;-59
2023/03/09 09:54:39;;;;;;;11.20;8.15;;;4.80;99.90;;;;;;5090987;28;20075;-58
2023/03/09 09:57:19;;;;;;;11.68;7.75;;;4.90;99.90;;;;;;5104125;28;20120;-59
2023/03/09 10:00:12;;;;;;;14.70;9.10;;;4.80;99.90;;;;;;5097574;28;20039;-58
2023/03/09 10:03:09;;;;;;;14.13;9.15;;;4.80;99.90;;;;;;5080395;28;20039;-59
2023/03/09 10:05:50;;;;;;;17.48;9.52;;;4.70;99.90;;;;;;5090038;28;20043;-59
2023/03/09 10:08:25;;;;;;;12.00;8.77;;;4.70;99.90;;;;;;5108898;28;20035;-58
2023/03/09 10:10:52;;;;;;;15.80;9.73;;;4.80;99.90;;;;;;5108011;28;20496;-59
2023/03/09 10:13:43;;;;;;;15.60;10.40;;;4.80;99.90;;;;;;5104826;27;20127;-59
2023/03/09 10:16:16;;;;;;;15.35;9.38;;;4.70;99.90;;;;;;5109114;27;20039;-59
2023/03/09 10:18:48;;;;;;;12.00;8.90;;;4.70;99.90;;;;;;5105290;27;20048;-59
2023/03/09 10:21:25;;;;;;;15.23;9.90;;;4.80;99.90;;;;;;5105948;27;20761;-58
2023/03/09 10:23:52;;;;;;;14.88;9.32;;;4.90;99.90;;;;;;5102440;28;20124;-60
2023/03/09 10:26:25;;;;;;;13.68;8.88;;;5.00;99.90;;;;;;5093278;28;20038;-59
2023/03/09 10:28:55;;;;;;;10.95;8.60;;;5.00;99.90;;;;;;5103441;27;20099;-59
2023/03/09 10:31:52;;;;;;;13.88;8.65;;;5.10;99.90;;;;;;5102459;27;20035;-58
2023/03/09 10:34:24;;;;;;;13.43;8.77;;;5.30;99.90;;;;;;5107836;27;20596;-59
2023/03/09 10:37:04;;;;;;;13.65;8.80;;;5.30;99.90;;;;;;5089299;28;20056;-58
2023/03/09 10:39:36;;;;;;;47.28;22.85;;;5.40;99.90;;;;;;5109971;27;20068;-59
2023/03/09 10:42:22;;;;;;;39.95;28.50;;;5.40;99.90;;;;;;5090013;28;20048;-60
2023/03/09 10:45:01;;;;;;;18.90;12.18;;;5.30;99.90;;;;;;5077713;28;20040;-59
2023/03/09 10:47:47;;;;;;;25.20;21.38;;;5.30;99.90;;;;;;5111262;27;20024;-59
2023/03/09 10:50:14;;;;;;;10.43;7.63;;;5.30;99.90;;;;;;5106166;27;20045;-58
2023/03/09 10:52:40;;;;;;;13.32;8.10;;;5.30;99.90;;;;;;5110048;27;20458;-59
2023/03/09 10:55:27;;;;;;;12.25;9.30;;;5.30;99.90;;;;;;5084117;28;20138;-60
2023/03/09 10:57:58;;;;;;;11.32;7.63;;;5.30;99.90;;;;;;5099634;27;20052;-60
2023/03/09 11:00:27;;;;;;;9.95;8.35;;;5.20;99.90;;;;;;5108151;28;20039;-58
2023/03/09 11:02:55;;;;;;;10.52;7.68;;;5.10;99.90;;;;;;5108047;28;20126;-58
2023/03/09 11:05:27;;;;;;;11.88;8.95;;;5.10;99.90;;;;;;5103528;28;20036;-59
2023/03/09 11:07:57;;;;;;;10.20;8.07;;;5.00;99.90;;;;;;5087756;28;20042;-58
2023/03/09 11:10:23;;;;;;;11.25;7.93;;;5.00;99.90;;;;;;5067863;28;20116;-59
2023/03/09 11:12:50;;;;;;;9.32;7.25;;;5.00;99.90;;;;;;5103089;28;20048;-59
2023/03/09 11:15:15;;;;;;;10.75;7.35;;;5.00;99.90;;;;;;5098363;28;20176;-58
2023/03/09 11:17:46;;;;;;;10.38;7.53;;;5.10;99.90;;;;;;5105367;28;20069;-59
2023/03/09 11:20:12;;;;;;;11.27;8.25;;;5.00;99.90;;;;;;5089038;28;20036;-59
2023/03/09 11:25:14;;;;;;;10.48;7.90;;;5.00;99.90;;;;;;5042564;28;20052;-54
2023/03/09 11:27:44;;;;;;;11.23;8.10;;;5.00;99.90;;;;;;5046960;28;20404;-55
2023/03/09 11:30:14;;;;;;;12.98;7.90;;;5.00;99.90;;;;;;5029120;28;20056;-55
2023/03/09 11:32:40;;;;;;;10.70;8.32;;;5.00;99.90;;;;;;5031999;28;20061;-55
2023/03/09 11:35:12;;;;;;;10.48;8.05;;;5.10;99.90;;;;;;5014742;28;20033;-55
2023/03/09 11:37:47;;;;;;;10.18;7.60;;;5.10;99.90;;;;;;5022885;28;20040;-55
2023/03/09 11:40:22;;;;;;;10.40;7.35;;;5.10;99.90;;;;;;5043170;28;20048;-56
2023/03/09 11:43:23;;;;;;;11.02;7.55;;;5.10;99.90;;;;;;5017403;28;20049;-56
2023/03/09 11:45:51;;;;;;;11.93;7.53;;;5.20;99.90;;;;;;4980486;28;20119;-55
2023/03/09 11:48:31;;;;;;;9.88;6.95;;;5.20;99.90;;;;;;5044433;28;20049;-56
2023/03/09 11:51:05;;;;;;;11.25;7.85;;;5.20;99.90;;;;;;5040322;28;20052;-56
2023/03/09 11:53:33;;;;;;;19.90;12.45;;;5.20;99.90;;;;;;5037967;28;20139;-56
2023/03/09 11:56:17;;;;;;;24.60;12.73;;;5.30;99.90;;;;;;5038076;28;20040;-56
2023/03/09 11:58:47;;;;;;;12.30;9.00;;;5.40;99.90;;;;;;5034023;28;20044;-55
2023/03/09 12:01:29;;;;;;;8.88;6.22;;;5.40;99.90;;;;;;5039920;28;20043;-55
2023/03/09 12:04:06;;;;;;;9.02;7.30;;;5.40;99.90;;;;;;5026106;28;20534;-55
2023/03/09 12:07:10;;;;;;;10.57;6.88;;;5.50;99.90;;;;;;5037360;28;20040;-57
2023/03/09 12:10:03;;;;;;;9.50;6.18;;;5.70;99.90;;;;;;5015992;28;20484;-54
2023/03/09 12:12:58;;;;;;;9.30;6.13;;;5.60;99.90;;;;;;5021481;28;20049;-55
2023/03/09 12:15:43;;;;;;;9.82;6.32;;;5.60;99.90;;;;;;5050571;28;20143;-55
2023/03/09 12:18:26;;;;;;;9.70;7.20;;;5.70;99.90;;;;;;5038022;28;20049;-55
2023/03/09 12:21:28;;;;;;;8.73;5.95;;;5.60;99.90;;;;;;5029830;28;20088;-56
2023/03/09 12:23:54;;;;;;;8.93;5.25;;;5.60;99.90;;;;;;5031740;28;20183;-57
2023/03/09 12:26:30;;;;;;;9.00;6.25;;;5.50;99.90;;;;;;5024935;28;20120;-54
2023/03/09 12:29:21;;;;;;;9.07;6.03;;;5.50;99.90;;;;;;5022208;28;20046;-53
2023/03/09 12:32:10;;;;;;;8.13;6.00;;;5.60;99.90;;;;;;5020138;28;20037;-51
2023/03/09 12:34:41;;;;;;;8.75;5.78;;;5.70;99.90;;;;;;5020965;28;20046;-58
2023/03/09 12:37:35;;;;;;;8.40;5.55;;;5.60;99.90;;;;;;5006550;28;20033;-56
2023/03/09 12:40:17;;;;;;;8.27;5.32;;;5.60;99.90;;;;;;5001579;28;20138;-58
2023/03/09 12:42:45;;;;;;;7.53;5.47;;;5.70;99.90;;;;;;5021372;28;20048;-58
2023/03/09 12:45:11;;;;;;;8.50;5.88;;;5.50;99.90;;;;;;5019862;28;20123;-56
2023/03/09 12:47:52;;;;;;;8.70;5.63;;;5.50;99.90;;;;;;5015833;28;20038;-60
2023/03/09 12:50:42;;;;;;;7.82;5.65;;;5.50;99.90;;;;;;5017658;28;20041;-55
2023/03/09 12:53:14;;;;;;;10.13;6.97;;;5.60;99.90;;;;;;5000038;28;20045;-58
2023/03/09 12:55:39;;;;;;;7.47;5.65;;;5.50;99.90;;;;;;5021694;28;20115;-58